sensor_id;sensor_type;location;lat;lon;timestamp;pressure;altitude;pressure_sealevel;temperature;humidity
74346;BME280;62776;50.518;6.732;2023-11-19T00:02:34;96180.16;;;10.30;100.00
74346;BME280;62776;50.518;6.732;2023-11-19T00:05:20;96170.66;;;10.29;100.00
74346;BME280;62776;50.518;6.732;2023-11-19T00:08:06;96163.69;;;10.31;100.00
74346;BME280;62776;50.518;6.732;2023-11-19T00:10:57;96159.47;;;10.24;100.00
74346;BME280;62776;50.518;6.732;2023-11-19T00:13:43;96129.13;;;10.27;100.00
74346;BME280;62776;50.518;6.732;2023-11-19T00:16:29;96129.97;;;10.28;100.00
74346;BME280;62776;50.518;6.732;2023-11-19T00:19:19;96119.69;;;10.20;100.00
74346;BME280;62776;50.518;6.732;2023-11-19T00:22:06;96114.50;;;10.22;100.00
74346;BME280;62776;50.518;6.732;2023-11-19T00:24:59;96109.31;;;10.22;100.00
74346;BME280;62776;50.518;6.732;2023-11-19T00:27:46;96125.75;;;10.21;100.00
74346;BME280;62776;50.518;6.732;2023-11-19T00:30:33;96114.53;;;10.19;100.00
74346;BME280;62776;50.518;6.732;2023-11-19T00:33:19;96127.44;;;10.23;100.00
74346;BME280;62776;50.518;6.732;2023-11-19T00:36:11;96127.47;;;10.22;100.00
74346;BME280;62776;50.518;6.732;2023-11-19T00:38:58;96130.88;;;10.25;100.00
74346;BME280;62776;50.518;6.732;2023-11-19T00:41:47;96133.41;;;10.28;100.00
74346;BME280;62776;50.518;6.732;2023-11-19T00:44:34;96146.28;;;10.36;100.00
74346;BME280;62776;50.518;6.732;2023-11-19T00:47:24;96151.38;;;10.42;100.00
74346;BME280;62776;50.518;6.732;2023-11-19T00:50:10;96144.41;;;10.45;100.00
74346;BME280;62776;50.518;6.732;2023-11-19T00:52:57;96143.44;;;10.49;100.00
74346;BME280;62776;50.518;6.732;2023-11-19T00:55:43;96141.66;;;10.53;100.00
74346;BME280;62776;50.518;6.732;2023-11-19T00:58:32;96135.59;;;10.54;100.00
74346;BME280;62776;50.518;6.732;2023-11-19T01:01:19;96123.38;;;10.59;100.00
74346;BME280;62776;50.518;6.732;2023-11-19T01:04:09;96112.13;;;10.60;100.00
74346;BME280;62776;50.518;6.732;2023-11-19T01:06:57;96109.47;;;10.61;100.00
74346;BME280;62776;50.518;6.732;2023-11-19T01:09:45;96108.59;;;10.62;100.00
74346;BME280;62776;50.518;6.732;2023-11-19T01:12:32;96103.41;;;10.62;100.00
74346;BME280;62776;50.518;6.732;2023-11-19T01:15:18;96099.88;;;10.65;100.00
74346;BME280;62776;50.518;6.732;2023-11-19T01:18:05;96105.09;;;10.65;100.00
74346;BME280;62776;50.518;6.732;2023-11-19T01:20:51;96114.56;;;10.66;100.00
74346;BME280;62776;50.518;6.732;2023-11-19T01:23:38;96119.78;;;10.68;100.00
74346;BME280;62776;50.518;6.732;2023-11-19T01:26:29;96113.75;;;10.64;100.00
74346;BME280;62776;50.518;6.732;2023-11-19T01:29:18;96115.38;;;10.71;100.00
74346;BME280;62776;50.518;6.732;2023-11-19T01:32:06;96105.81;;;10.72;100.00
74346;BME280;62776;50.518;6.732;2023-11-19T01:34:52;96095.41;;;10.72;100.00
74346;BME280;62776;50.518;6.732;2023-11-19T01:37:39;96098.00;;;10.73;100.00
74346;BME280;62776;50.518;6.732;2023-11-19T01:40:26;96105.75;;;10.76;100.00
74346;BME280;62776;50.518;6.732;2023-11-19T01:43:30;96105.69;;;10.79;100.00
74346;BME280;62776;50.518;6.732;2023-11-19T01:46:16;96103.06;;;10.82;100.00
74346;BME280;62776;50.518;6.732;2023-11-19T01:49:03;96105.59;;;10.84;100.00
74346;BME280;62776;50.518;6.732;2023-11-19T01:51:51;96110.75;;;10.87;100.00
74346;BME280;62776;50.518;6.732;2023-11-19T01:54:38;96108.09;;;10.88;100.00
74346;BME280;62776;50.518;6.732;2023-11-19T01:57:24;96113.28;;;10.90;100.00
74346;BME280;62776;50.518;6.732;2023-11-19T02:00:11;96106.25;;;10.95;100.00
74346;BME280;62776;50.518;6.732;2023-11-19T02:02:58;96095.81;;;10.96;100.00
74346;BME280;62776;50.518;6.732;2023-11-19T02:05:30;96091.47;;;10.98;100.00
74346;BME280;62776;50.518;6.732;2023-11-19T02:08:18;96094.00;;;11.01;100.00
74346;BME280;62776;50.518;6.732;2023-11-19T02:11:06;96079.22;;;11.03;100.00
74346;BME280;62776;50.518;6.732;2023-11-19T02:13:53;96085.16;;;11.10;100.00
74346;BME280;62776;50.518;6.732;2023-11-19T02:16:40;96091.97;;;11.15;100.00
74346;BME280;62776;50.518;6.732;2023-11-19T02:19:26;96093.69;;;11.16;100.00
74346;BME280;62776;50.518;6.732;2023-11-19T02:22:13;96085.84;;;11.19;100.00
74346;BME280;62776;50.518;6.732;2023-11-19T02:25:04;96073.69;;;11.20;100.00
74346;BME280;62776;50.518;6.732;2023-11-19T02:27:57;96078.84;;;11.21;100.00
74346;BME280;62776;50.518;6.732;2023-11-19T02:30:45;96097.06;;;11.21;100.00
74346;BME280;62776;50.518;6.732;2023-11-19T02:33:40;96087.69;;;11.13;100.00
74346;BME280;62776;50.518;6.732;2023-11-19T02:36:27;96089.25;;;11.21;100.00
74346;BME280;62776;50.518;6.732;2023-11-19T02:39:13;96102.19;;;11.24;100.00
74346;BME280;62776;50.518;6.732;2023-11-19T02:41:59;96096.13;;;11.25;100.00
74346;BME280;62776;50.518;6.732;2023-11-19T02:44:46;96082.25;;;11.23;100.00
74346;BME280;62776;50.518;6.732;2023-11-19T02:47:32;96068.44;;;11.23;100.00
74346;BME280;62776;50.518;6.732;2023-11-19T02:50:20;96051.97;;;11.22;100.00
74346;BME280;62776;50.518;6.732;2023-11-19T02:53:17;96069.25;;;11.25;100.00
74346;BME280;62776;50.518;6.732;2023-11-19T02:56:08;96074.66;;;11.14;100.00
74346;BME280;62776;50.518;6.732;2023-11-19T02:59:05;96064.25;;;11.14;100.00
74346;BME280;62776;50.518;6.732;2023-11-19T03:02:00;96064.25;;;11.14;100.00
74346;BME280;62776;50.518;6.732;2023-11-19T03:04:47;96052.94;;;11.17;100.00
74346;BME280;62776;50.518;6.732;2023-11-19T03:07:37;96049.34;;;11.22;100.00
74346;BME280;62776;50.518;6.732;2023-11-19T03:10:23;96041.44;;;11.29;100.00
74346;BME280;62776;50.518;6.732;2023-11-19T03:13:12;96039.66;;;11.29;100.00
74346;BME280;62776;50.518;6.732;2023-11-19T03:16:00;96021.19;;;11.41;100.00
74346;BME280;62776;50.518;6.732;2023-11-19T03:18:46;96020.31;;;11.41;100.00
74346;BME280;62776;50.518;6.732;2023-11-19T03:21:32;96033.28;;;11.44;100.00
74346;BME280;62776;50.518;6.732;2023-11-19T03:24:21;96029.75;;;11.46;100.00
74346;BME280;62776;50.518;6.732;2023-11-19T03:27:08;96040.13;;;11.48;100.00
74346;BME280;62776;50.518;6.732;2023-11-19T03:29:54;96016.78;;;11.45;100.00
74346;BME280;62776;50.518;6.732;2023-11-19T03:32:41;96018.69;;;11.37;100.00
74346;BME280;62776;50.518;6.732;2023-11-19T03:35:27;96013.69;;;11.27;100.00
74346;BME280;62776;50.518;6.732;2023-11-19T03:38:14;96014.63;;;11.23;100.00
74346;BME280;62776;50.518;6.732;2023-11-19T03:41:09;95999.19;;;11.16;100.00
74346;BME280;62776;50.518;6.732;2023-11-19T03:43:56;96027.91;;;11.11;100.00
74346;BME280;62776;50.518;6.732;2023-11-19T03:46:43;96018.25;;;11.16;100.00
74346;BME280;62776;50.518;6.732;2023-11-19T03:49:29;96031.31;;;11.13;100.00
74346;BME280;62776;50.518;6.732;2023-11-19T03:52:16;96003.75;;;11.05;100.00
74346;BME280;62776;50.518;6.732;2023-11-19T03:55:03;95998.59;;;11.03;100.00
74346;BME280;62776;50.518;6.732;2023-11-19T03:57:51;96003.00;;;11.01;100.00
74346;BME280;62776;50.518;6.732;2023-11-19T04:00:38;95991.72;;;11.01;100.00
74346;BME280;62776;50.518;6.732;2023-11-19T04:03:24;95988.31;;;10.97;100.00
74346;BME280;62776;50.518;6.732;2023-11-19T04:06:11;95998.03;;;10.89;100.00
74346;BME280;62776;50.518;6.732;2023-11-19T04:08:57;96003.28;;;10.86;100.00
74346;BME280;62776;50.518;6.732;2023-11-19T04:11:44;96007.63;;;10.87;100.00
74346;BME280;62776;50.518;6.732;2023-11-19T04:14:32;96006.84;;;10.82;100.00
74346;BME280;62776;50.518;6.732;2023-11-19T04:17:19;96008.59;;;10.82;100.00
74346;BME280;62776;50.518;6.732;2023-11-19T04:20:09;96016.47;;;10.77;100.00
74346;BME280;62776;50.518;6.732;2023-11-19T04:22:59;96020.09;;;10.70;100.00
74346;BME280;62776;50.518;6.732;2023-11-19T04:25:47;96020.19;;;10.64;100.00
74346;BME280;62776;50.518;6.732;2023-11-19T04:28:33;96017.66;;;10.61;100.00
74346;BME280;62776;50.518;6.732;2023-11-19T04:31:19;96008.94;;;10.63;100.00
74346;BME280;62776;50.518;6.732;2023-11-19T04:34:06;96016.78;;;10.62;100.00
74346;BME280;62776;50.518;6.732;2023-11-19T04:36:53;96021.97;;;10.62;100.00
74346;BME280;62776;50.518;6.732;2023-11-19T04:39:40;96019.47;;;10.57;100.00
74346;BME280;62776;50.518;6.732;2023-11-19T04:42:26;96019.53;;;10.54;100.00
74346;BME280;62776;50.518;6.732;2023-11-19T04:45:14;96007.50;;;10.49;100.00
74346;BME280;62776;50.518;6.732;2023-11-19T04:48:03;96018.78;;;10.48;100.00
74346;BME280;62776;50.518;6.732;2023-11-19T04:50:50;95999.66;;;10.50;100.00
74346;BME280;62776;50.518;6.732;2023-11-19T04:53:38;96009.19;;;10.50;100.00
74346;BME280;62776;50.518;6.732;2023-11-19T04:56:27;95999.00;;;10.39;100.00
74346;BME280;62776;50.518;6.732;2023-11-19T04:59:13;96003.25;;;10.45;100.00
74346;BME280;62776;50.518;6.732;2023-11-19T05:02:00;96003.25;;;10.45;100.00
74346;BME280;62776;50.518;6.732;2023-11-19T05:04:46;96018.88;;;10.42;100.00
74346;BME280;62776;50.518;6.732;2023-11-19T05:07:36;96013.88;;;10.33;100.00
74346;BME280;62776;50.518;6.732;2023-11-19T05:10:23;96026.00;;;10.31;100.00
74346;BME280;62776;50.518;6.732;2023-11-19T05:13:12;96007.81;;;10.32;100.00
74346;BME280;62776;50.518;6.732;2023-11-19T05:15:58;96002.63;;;10.32;100.00
74346;BME280;62776;50.518;6.732;2023-11-19T05:18:45;96008.69;;;10.33;100.00
74346;BME280;62776;50.518;6.732;2023-11-19T05:21:31;96019.91;;;10.33;100.00
74346;BME280;62776;50.518;6.732;2023-11-19T05:24:17;96019.06;;;10.31;100.00
74346;BME280;62776;50.518;6.732;2023-11-19T05:27:04;96025.13;;;10.32;100.00
74346;BME280;62776;50.518;6.732;2023-11-19T05:29:57;96016.53;;;10.28;100.00
74346;BME280;62776;50.518;6.732;2023-11-19T05:32:43;96029.78;;;10.12;100.00
74346;BME280;62776;50.518;6.732;2023-11-19T05:35:30;96029.56;;;10.27;100.00
74346;BME280;62776;50.518;6.732;2023-11-19T05:38:16;96021.72;;;10.28;100.00
74346;BME280;62776;50.518;6.732;2023-11-19T05:41:03;96031.25;;;10.28;100.00
74346;BME280;62776;50.518;6.732;2023-11-19T05:43:50;96021.72;;;10.30;100.00
74346;BME280;62776;50.518;6.732;2023-11-19T05:46:37;96032.94;;;10.32;100.00
74346;BME280;62776;50.518;6.732;2023-11-19T05:49:28;96029.41;;;10.34;100.00
74346;BME280;62776;50.518;6.732;2023-11-19T05:52:18;96015.56;;;10.34;100.00
74346;BME280;62776;50.518;6.732;2023-11-19T05:55:05;96012.09;;;10.35;100.00
74346;BME280;62776;50.518;6.732;2023-11-19T05:57:57;96017.28;;;10.35;100.00
74346;BME280;62776;50.518;6.732;2023-11-19T06:00:43;96028.44;;;10.40;100.00
74346;BME280;62776;50.518;6.732;2023-11-19T06:03:29;96004.31;;;10.35;100.00
74346;BME280;62776;50.518;6.732;2023-11-19T06:06:16;96035.47;;;10.35;100.00
74346;BME280;62776;50.518;6.732;2023-11-19T06:09:03;96036.28;;;10.37;100.00
74346;BME280;62776;50.518;6.732;2023-11-19T06:11:53;96023.34;;;10.35;100.00
74346;BME280;62776;50.518;6.732;2023-11-19T06:14:43;96029.50;;;10.30;100.00
74346;BME280;62776;50.518;6.732;2023-11-19T06:17:29;96026.91;;;10.28;100.00
74346;BME280;62776;50.518;6.732;2023-11-19T06:20:15;96043.41;;;10.26;100.00
74346;BME280;62776;50.518;6.732;2023-11-19T06:23:03;96041.81;;;10.19;100.00
74346;BME280;62776;50.518;6.732;2023-11-19T06:25:49;96033.19;;;10.17;100.00
74346;BME280;62776;50.518;6.732;2023-11-19T06:28:37;96035.91;;;10.07;100.00
74346;BME280;62776;50.518;6.732;2023-11-19T06:31:23;96041.06;;;10.11;100.00
74346;BME280;62776;50.518;6.732;2023-11-19T06:34:10;96040.22;;;10.08;100.00
74346;BME280;62776;50.518;6.732;2023-11-19T06:37:09;96033.41;;;10.01;100.00
74346;BME280;62776;50.518;6.732;2023-11-19T06:39:56;96026.34;;;10.09;100.00
74346;BME280;62776;50.518;6.732;2023-11-19T06:42:42;96043.75;;;10.04;100.00
74346;BME280;62776;50.518;6.732;2023-11-19T06:45:29;96030.78;;;10.04;100.00
74346;BME280;62776;50.518;6.732;2023-11-19T06:48:15;96043.72;;;10.07;100.00
74346;BME280;62776;50.518;6.732;2023-11-19T06:51:05;96048.88;;;10.09;100.00
74346;BME280;62776;50.518;6.732;2023-11-19T06:53:52;96052.22;;;10.19;100.00
74346;BME280;62776;50.518;6.732;2023-11-19T06:56:42;96059.06;;;10.23;100.00
74346;BME280;62776;50.518;6.732;2023-11-19T06:59:29;96067.63;;;10.28;100.00
74346;BME280;62776;50.518;6.732;2023-11-19T07:02:18;96068.47;;;10.28;100.00
74346;BME280;62776;50.518;6.732;2023-11-19T07:05:05;96062.38;;;10.31;100.00
74346;BME280;62776;50.518;6.732;2023-11-19T07:07:59;96087.47;;;10.32;100.00
74346;BME280;62776;50.518;6.732;2023-11-19T07:10:49;96086.66;;;10.30;100.00
74346;BME280;62776;50.518;6.732;2023-11-19T07:13:35;96077.19;;;10.27;100.00
74346;BME280;62776;50.518;6.732;2023-11-19T07:16:24;96081.56;;;10.24;100.00
74346;BME280;62776;50.518;6.732;2023-11-19T07:19:11;96092.88;;;10.20;100.00
74346;BME280;62776;50.518;6.732;2023-11-19T07:21:58;96093.81;;;10.16;100.00
74346;BME280;62776;50.518;6.732;2023-11-19T07:24:48;96092.09;;;10.15;100.00
74346;BME280;62776;50.518;6.732;2023-11-19T07:27:35;96107.72;;;10.08;100.00
74346;BME280;62776;50.518;6.732;2023-11-19T07:30:25;96087.00;;;10.05;100.00
74346;BME280;62776;50.518;6.732;2023-11-19T07:33:17;96078.50;;;9.96;100.00
74346;BME280;62776;50.518;6.732;2023-11-19T07:36:04;96087.13;;;9.99;100.00
74346;BME280;62776;50.518;6.732;2023-11-19T07:38:54;96067.19;;;10.00;100.00
74346;BME280;62776;50.518;6.732;2023-11-19T07:41:46;96100.94;;;10.01;100.00
74346;BME280;62776;50.518;6.732;2023-11-19T07:44:33;96091.44;;;9.99;100.00
74346;BME280;62776;50.518;6.732;2023-11-19T07:47:22;96107.03;;;9.97;100.00
74346;BME280;62776;50.518;6.732;2023-11-19T07:50:10;96104.44;;;9.97;100.00
74346;BME280;62776;50.518;6.732;2023-11-19T07:53:02;96088.84;;;9.97;100.00
74346;BME280;62776;50.518;6.732;2023-11-19T07:55:50;96081.94;;;9.98;100.00
74346;BME280;62776;50.518;6.732;2023-11-19T07:58:37;96099.25;;;9.97;100.00
74346;BME280;62776;50.518;6.732;2023-11-19T08:01:24;96107.03;;;9.97;100.00
74346;BME280;62776;50.518;6.732;2023-11-19T08:04:11;96109.59;;;10.00;100.00
74346;BME280;62776;50.518;6.732;2023-11-19T08:06:57;96110.50;;;9.98;100.00
74346;BME280;62776;50.518;6.732;2023-11-19T08:09:50;96116.53;;;9.98;100.00
74346;BME280;62776;50.518;6.732;2023-11-19T08:12:37;96118.22;;;10.02;100.00
74346;BME280;62776;50.518;6.732;2023-11-19T08:15:24;96119.06;;;10.03;100.00
74346;BME280;62776;50.518;6.732;2023-11-19T08:18:10;96126.00;;;10.02;100.00
74346;BME280;62776;50.518;6.732;2023-11-19T08:20:57;96128.63;;;10.02;100.00
74346;BME280;62776;50.518;6.732;2023-11-19T08:23:45;96116.47;;;10.03;100.00
74346;BME280;62776;50.518;6.732;2023-11-19T08:26:31;96117.31;;;10.03;100.00
74346;BME280;62776;50.518;6.732;2023-11-19T08:29:18;96114.72;;;10.05;100.00
74346;BME280;62776;50.518;6.732;2023-11-19T08:32:05;96112.97;;;10.05;100.00
74346;BME280;62776;50.518;6.732;2023-11-19T08:34:53;96100.84;;;10.06;100.00
74346;BME280;62776;50.518;6.732;2023-11-19T08:37:42;96105.09;;;10.13;100.00
74346;BME280;62776;50.518;6.732;2023-11-19T08:40:28;96099.00;;;10.16;100.00
74346;BME280;62776;50.518;6.732;2023-11-19T08:43:20;96095.50;;;10.18;100.00
74346;BME280;62776;50.518;6.732;2023-11-19T08:46:10;96094.59;;;10.21;100.00
74346;BME280;62776;50.518;6.732;2023-11-19T08:48:57;96091.00;;;10.28;100.00
74346;BME280;62776;50.518;6.732;2023-11-19T08:51:47;96103.16;;;10.27;100.00
74346;BME280;62776;50.518;6.732;2023-11-19T08:54:36;96102.25;;;10.30;100.00
74346;BME280;62776;50.518;6.732;2023-11-19T08:57:24;96111.66;;;10.35;100.00
74346;BME280;62776;50.518;6.732;2023-11-19T09:00:14;96114.19;;;10.40;100.00
74346;BME280;62776;50.518;6.732;2023-11-19T09:03:00;96104.66;;;10.39;100.00
74346;BME280;62776;50.518;6.732;2023-11-19T09:05:50;96110.59;;;10.47;100.00
74346;BME280;62776;50.518;6.732;2023-11-19T09:08:40;96107.94;;;10.50;100.00
74346;BME280;62776;50.518;6.732;2023-11-19T09:11:29;96127.75;;;10.55;100.00
74346;BME280;62776;50.518;6.732;2023-11-19T09:14:17;96129.44;;;10.59;100.00
74346;BME280;62776;50.518;6.732;2023-11-19T09:17:11;96121.53;;;10.65;100.00
74346;BME280;62776;50.518;6.732;2023-11-19T09:19:58;96132.72;;;10.69;100.00
74346;BME280;62776;50.518;6.732;2023-11-19T09:22:48;96132.72;;;10.69;100.00
74346;BME280;62776;50.518;6.732;2023-11-19T09:25:34;96143.94;;;10.73;100.00
74346;BME280;62776;50.518;6.732;2023-11-19T09:28:24;96131.75;;;10.75;100.00
74346;BME280;62776;50.518;6.732;2023-11-19T09:31:17;96135.28;;;10.72;100.00
74346;BME280;62776;50.518;6.732;2023-11-19T09:34:08;96135.22;;;10.77;100.00
74346;BME280;62776;50.518;6.732;2023-11-19T09:36:58;96122.13;;;10.81;100.00
74346;BME280;62776;50.518;6.732;2023-11-19T09:39:47;96135.06;;;10.84;100.00
74346;BME280;62776;50.518;6.732;2023-11-19T09:42:44;96125.53;;;10.83;100.00
74346;BME280;62776;50.518;6.732;2023-11-19T09:45:48;96117.59;;;10.91;100.00
74346;BME280;62776;50.518;6.732;2023-11-19T09:48:35;96117.94;;;10.73;100.00
74346;BME280;62776;50.518;6.732;2023-11-19T09:51:38;96113.25;;;10.91;100.00
74346;BME280;62776;50.518;6.732;2023-11-19T09:54:30;96125.22;;;11.01;100.00
74346;BME280;62776;50.518;6.732;2023-11-19T09:57:21;96123.22;;;11.14;100.00
74346;BME280;62776;50.518;6.732;2023-11-19T10:00:11;96135.19;;;11.22;100.00
74346;BME280;62776;50.518;6.732;2023-11-19T10:03:07;96120.13;;;11.38;100.00
74346;BME280;62776;50.518;6.732;2023-11-19T10:05:55;96126.06;;;11.45;100.00
74346;BME280;62776;50.518;6.732;2023-11-19T10:08:43;96116.31;;;11.54;100.00
74346;BME280;62776;50.518;6.732;2023-11-19T10:11:29;96080.69;;;11.58;100.00
74346;BME280;62776;50.518;6.732;2023-11-19T10:14:24;96134.34;;;11.63;100.00
74346;BME280;62776;50.518;6.732;2023-11-19T10:17:10;96119.47;;;11.71;100.00
74346;BME280;62776;50.518;6.732;2023-11-19T10:20:00;96120.25;;;11.75;100.00
74346;BME280;62776;50.518;6.732;2023-11-19T10:22:56;96112.41;;;11.76;100.00
74346;BME280;62776;50.518;6.732;2023-11-19T10:25:44;96098.38;;;11.82;100.00
74346;BME280;62776;50.518;6.732;2023-11-19T10:28:39;96091.75;;;11.69;100.00
74346;BME280;62776;50.518;6.732;2023-11-19T10:31:29;96089.78;;;11.78;100.00
74346;BME280;62776;50.518;6.732;2023-11-19T10:34:26;96101.16;;;11.74;100.00
74346;BME280;62776;50.518;6.732;2023-11-19T10:37:39;96112.66;;;11.63;100.00
74346;BME280;62776;50.518;6.732;2023-11-19T10:40:39;96101.19;;;11.73;100.00
74346;BME280;62776;50.518;6.732;2023-11-19T10:43:43;96097.78;;;11.71;100.00
74346;BME280;62776;50.518;6.732;2023-11-19T10:46:42;96093.47;;;11.70;100.00
74346;BME280;62776;50.518;6.732;2023-11-19T10:49:32;96106.31;;;11.76;100.00
74346;BME280;62776;50.518;6.732;2023-11-19T10:52:26;96090.75;;;11.74;100.00
74346;BME280;62776;50.518;6.732;2023-11-19T10:55:15;96091.69;;;11.72;100.00
74346;BME280;62776;50.518;6.732;2023-11-19T11:02:03;96091.88;;;11.61;100.00
74346;BME280;62776;50.518;6.732;2023-11-19T11:04:53;96095.25;;;11.66;100.00
74346;BME280;62776;50.518;6.732;2023-11-19T11:07:55;96090.78;;;11.73;100.00
74346;BME280;62776;50.518;6.732;2023-11-19T11:10:57;96090.91;;;11.67;100.00
74346;BME280;62776;50.518;6.732;2023-11-19T11:13:49;96099.38;;;11.78;100.00
74346;BME280;62776;50.518;6.732;2023-11-19T11:16:39;96112.22;;;11.84;100.00
74346;BME280;62776;50.518;6.732;2023-11-19T11:19:28;96102.34;;;11.98;100.00
74346;BME280;62776;50.518;6.732;2023-11-19T11:22:15;96102.22;;;12.04;100.00
74346;BME280;62776;50.518;6.732;2023-11-19T11:25:29;96111.81;;;12.02;100.00
74346;BME280;62776;50.518;6.732;2023-11-19T11:28:42;96096.19;;;12.02;100.00
74346;BME280;62776;50.518;6.732;2023-11-19T11:31:52;96111.69;;;12.08;100.00
74346;BME280;62776;50.518;6.732;2023-11-19T11:34:53;96100.28;;;12.12;100.00
74346;BME280;62776;50.518;6.732;2023-11-19T11:37:49;96107.16;;;12.15;100.00
74346;BME280;62776;50.518;6.732;2023-11-19T11:40:36;96089.88;;;12.12;100.00
74346;BME280;62776;50.518;6.732;2023-11-19T11:43:48;96105.94;;;11.94;100.00
74346;BME280;62776;50.518;6.732;2023-11-19T11:49:27;96083.97;;;12.04;100.00
74346;BME280;62776;50.518;6.732;2023-11-19T11:52:15;96092.69;;;12.03;100.00
74346;BME280;62776;50.518;6.732;2023-11-19T11:55:05;96082.38;;;11.99;100.00
74346;BME280;62776;50.518;6.732;2023-11-19T11:57:55;96069.41;;;11.97;100.00
74346;BME280;62776;50.518;6.732;2023-11-19T12:00:42;96065.13;;;11.95;100.00
74346;BME280;62776;50.518;6.732;2023-11-19T12:03:33;96077.34;;;11.91;100.00
74346;BME280;62776;50.518;6.732;2023-11-19T12:06:22;96081.03;;;11.82;100.00
74346;BME280;62776;50.518;6.732;2023-11-19T12:09:08;96070.41;;;11.90;100.00
74346;BME280;62776;50.518;6.732;2023-11-19T12:15:08;96078.56;;;12.13;100.00
74346;BME280;62776;50.518;6.732;2023-11-19T12:17:58;96055.81;;;12.20;100.00
74346;BME280;62776;50.518;6.732;2023-11-19T12:20:45;96060.88;;;12.26;100.00
74346;BME280;62776;50.518;6.732;2023-11-19T12:23:32;96053.78;;;12.31;100.00
74346;BME280;62776;50.518;6.732;2023-11-19T12:26:34;96048.63;;;12.29;100.00
74346;BME280;62776;50.518;6.732;2023-11-19T12:29:21;96041.41;;;12.40;100.00
74346;BME280;62776;50.518;6.732;2023-11-19T12:32:08;96045.41;;;12.54;100.00
74346;BME280;62776;50.518;6.732;2023-11-19T12:34:55;96053.06;;;12.60;100.00
74346;BME280;62776;50.518;6.732;2023-11-19T12:37:47;96048.63;;;12.63;100.00
74346;BME280;62776;50.518;6.732;2023-11-19T12:40:33;96048.56;;;12.65;100.00
74346;BME280;62776;50.518;6.732;2023-11-19T12:43:23;96038.22;;;12.62;100.00
74346;BME280;62776;50.518;6.732;2023-11-19T12:46:22;96029.75;;;12.54;100.00
74346;BME280;62776;50.518;6.732;2023-11-19T12:49:11;96040.09;;;12.57;100.00
74346;BME280;62776;50.518;6.732;2023-11-19T12:51:58;96035.78;;;12.56;100.00
74346;BME280;62776;50.518;6.732;2023-11-19T12:54:46;96044.72;;;12.46;100.00
74346;BME280;62776;50.518;6.732;2023-11-19T12:57:41;96045.09;;;12.32;100.00
74346;BME280;62776;50.518;6.732;2023-11-19T13:00:28;96046.75;;;12.36;100.00
74346;BME280;62776;50.518;6.732;2023-11-19T13:03:30;96067.81;;;12.27;100.00
74346;BME280;62776;50.518;6.732;2023-11-19T13:06:17;96074.56;;;12.34;100.00
74346;BME280;62776;50.518;6.732;2023-11-19T13:09:23;96066.22;;;12.20;100.00
74346;BME280;62776;50.518;6.732;2023-11-19T13:12:15;96056.22;;;12.03;100.00
74346;BME280;62776;50.518;6.732;2023-11-19T13:15:01;96070.22;;;11.99;100.00
74346;BME280;62776;50.518;6.732;2023-11-19T13:17:48;96055.66;;;11.91;100.00
74346;BME280;62776;50.518;6.732;2023-11-19T13:20:38;96043.69;;;11.82;100.00
74346;BME280;62776;50.518;6.732;2023-11-19T13:23:28;96048.16;;;11.77;100.00
74346;BME280;62776;50.518;6.732;2023-11-19T13:26:15;96046.50;;;11.73;100.00
74346;BME280;62776;50.518;6.732;2023-11-19T13:29:01;96046.72;;;11.64;100.00
74346;BME280;62776;50.518;6.732;2023-11-19T13:31:48;96052.91;;;11.58;100.00
74346;BME280;62776;50.518;6.732;2023-11-19T13:34:35;96050.38;;;11.55;100.00
74346;BME280;62776;50.518;6.732;2023-11-19T13:37:22;96049.50;;;11.55;100.00
74346;BME280;62776;50.518;6.732;2023-11-19T13:40:13;96035.69;;;11.53;100.00
74346;BME280;62776;50.518;6.732;2023-11-19T13:43:01;96033.88;;;11.55;100.00
74346;BME280;62776;50.518;6.732;2023-11-19T13:45:47;96034.81;;;11.52;100.00
74346;BME280;62776;50.518;6.732;2023-11-19T13:48:34;96024.41;;;11.52;100.00
74346;BME280;62776;50.518;6.732;2023-11-19T13:51:23;96029.69;;;11.49;100.00
74346;BME280;62776;50.518;6.732;2023-11-19T13:54:10;96018.47;;;11.46;100.00
74346;BME280;62776;50.518;6.732;2023-11-19T13:56:59;96017.72;;;11.41;100.00
74346;BME280;62776;50.518;6.732;2023-11-19T13:59:46;96023.91;;;11.37;100.00
74346;BME280;62776;50.518;6.732;2023-11-19T14:02:33;96023.97;;;11.32;100.00
74346;BME280;62776;50.518;6.732;2023-11-19T14:05:22;96025.75;;;11.32;100.00
74346;BME280;62776;50.518;6.732;2023-11-19T14:08:09;96022.44;;;11.23;100.00
74346;BME280;62776;50.518;6.732;2023-11-19T14:10:58;96033.34;;;10.99;100.00
74346;BME280;62776;50.518;6.732;2023-11-19T14:13:45;96030.25;;;10.82;100.00
74346;BME280;62776;50.518;6.732;2023-11-19T14:16:32;96019.28;;;10.66;100.00
74346;BME280;62776;50.518;6.732;2023-11-19T14:19:20;96034.94;;;10.63;100.00
74346;BME280;62776;50.518;6.732;2023-11-19T14:22:07;96040.13;;;10.63;100.00
74346;BME280;62776;50.518;6.732;2023-11-19T14:24:54;96042.75;;;10.62;100.00
74346;BME280;62776;50.518;6.732;2023-11-19T14:27:42;96039.34;;;10.60;100.00
74346;BME280;62776;50.518;6.732;2023-11-19T14:30:31;96042.97;;;10.50;100.00
74346;BME280;62776;50.518;6.732;2023-11-19T14:33:18;96049.94;;;10.48;100.00
74346;BME280;62776;50.518;6.732;2023-11-19T14:36:04;96053.31;;;10.54;100.00
74346;BME280;62776;50.518;6.732;2023-11-19T14:38:53;96047.97;;;10.62;100.00
74346;BME280;62776;50.518;6.732;2023-11-19T14:41:39;96046.34;;;10.55;100.00
74346;BME280;62776;50.518;6.732;2023-11-19T14:44:26;96043.78;;;10.53;100.00
74346;BME280;62776;50.518;6.732;2023-11-19T14:47:13;96048.22;;;10.47;100.00
74346;BME280;62776;50.518;6.732;2023-11-19T14:50:00;96054.34;;;10.44;100.00
74346;BME280;62776;50.518;6.732;2023-11-19T14:52:46;96045.81;;;10.38;100.00
74346;BME280;62776;50.518;6.732;2023-11-19T14:55:38;96053.81;;;10.26;100.00